createdAt,value
2023-03-11T00:02:22.694Z,56.88
2023-03-11T00:04:55.645Z,56.97
2023-03-11T00:07:28.455Z,56.96
2023-03-11T00:10:01.468Z,57.16
2023-03-11T00:12:35.720Z,57.14
2023-03-11T00:15:08.866Z,57.13
2023-03-11T00:17:41.557Z,57.22
2023-03-11T00:20:17.854Z,57.14
2023-03-11T00:22:51.320Z,57.13
2023-03-11T00:25:25.261Z,57.20
2023-03-11T00:27:59.683Z,57.12
2023-03-11T00:30:32.525Z,57.18
2023-03-11T00:33:05.610Z,57.10
2023-03-11T00:35:38.594Z,57.24
2023-03-11T00:38:13.461Z,57.22
2023-03-11T00:40:47.299Z,57.23
2023-03-11T00:43:21.422Z,57.28
2023-03-11T00:45:54.286Z,57.38
2023-03-11T00:48:27.292Z,57.31
2023-03-11T00:51:00.049Z,57.58
2023-03-11T00:53:32.889Z,57.34
2023-03-11T00:56:09.240Z,57.47
2023-03-11T00:58:45.976Z,57.36
2023-03-11T01:01:21.194Z,57.49
2023-03-11T01:03:54.288Z,57.50
2023-03-11T01:06:35.798Z,57.49
2023-03-11T01:09:12.098Z,57.64
2023-03-11T01:11:44.919Z,57.58
2023-03-11T01:14:19.150Z,57.63
2023-03-11T01:16:51.951Z,57.51
2023-03-11T01:19:24.679Z,57.77
2023-03-11T01:21:57.412Z,57.45
2023-03-11T01:24:30.151Z,57.51
2023-03-11T01:27:02.936Z,57.57
2023-03-11T01:29:37.106Z,57.67
2023-03-11T01:32:10.006Z,57.61
2023-03-11T01:34:42.894Z,57.68
2023-03-11T01:37:15.630Z,57.89
2023-03-11T01:39:48.951Z,57.70
2023-03-11T01:42:21.671Z,57.84
2023-03-11T01:44:56.285Z,57.79
2023-03-11T01:47:37.557Z,57.82
2023-03-11T01:50:13.517Z,57.93
2023-03-11T01:52:46.783Z,57.82
2023-03-11T01:55:20.812Z,57.98
2023-03-11T01:57:55.024Z,57.89
2023-03-11T02:00:32.440Z,57.94
2023-03-11T02:03:10.184Z,57.97
2023-03-11T02:05:43.605Z,57.96
2023-03-11T02:08:16.607Z,57.88
2023-03-11T02:10:50.531Z,57.79
2023-03-11T02:13:23.836Z,57.91
2023-03-11T02:16:00.781Z,57.87
2023-03-11T02:18:42.370Z,57.93
2023-03-11T02:21:28.995Z,57.85
2023-03-11T02:24:09.185Z,57.84
2023-03-11T02:26:44.457Z,57.80
2023-03-11T02:29:19.125Z,57.73
2023-03-11T02:31:55.676Z,57.78
2023-03-11T02:34:30.192Z,57.93
2023-03-11T02:37:05.800Z,57.73
2023-03-11T02:39:40.550Z,57.86
2023-03-11T02:42:19.761Z,57.95
2023-03-11T02:44:56.773Z,57.74
2023-03-11T02:47:31.750Z,57.76
2023-03-11T02:50:05.188Z,57.67
2023-03-11T02:52:38.356Z,57.78
2023-03-11T02:55:12.014Z,57.67
2023-03-11T02:57:46.480Z,57.55
2023-03-11T03:00:24.956Z,57.56
2023-03-11T03:03:08.976Z,57.58
2023-03-11T03:05:42.784Z,57.53
2023-03-11T03:08:15.844Z,57.63
2023-03-11T03:10:48.772Z,57.58
2023-03-11T03:13:21.571Z,57.55
2023-03-11T03:15:55.985Z,57.45
2023-03-11T03:18:33.480Z,57.51
2023-03-11T03:21:08.850Z,57.30
2023-03-11T03:23:41.831Z,57.25
2023-03-11T03:26:15.298Z,57.28
2023-03-11T03:28:53.146Z,57.27
2023-03-11T03:31:27.718Z,57.26
2023-03-11T03:34:00.671Z,57.30
2023-03-11T03:36:33.576Z,57.46
2023-03-11T03:39:09.505Z,57.19
2023-03-11T03:41:44.789Z,57.28
2023-03-11T03:44:18.328Z,57.20
2023-03-11T03:46:54.751Z,57.33
2023-03-11T03:49:31.109Z,57.34
2023-03-11T03:52:12.744Z,57.29
2023-03-11T03:54:49.706Z,57.47
2023-03-11T03:57:22.649Z,57.49
2023-03-11T04:00:01.887Z,57.63
2023-03-11T04:02:39.516Z,57.60
2023-03-11T04:05:27.929Z,57.52
2023-03-11T04:08:03.046Z,57.53
2023-03-11T04:10:36.228Z,57.46
2023-03-11T04:13:22.727Z,57.76
2023-03-11T04:15:58.703Z,57.57
2023-03-11T04:18:33.029Z,57.47
2023-03-11T04:21:14.294Z,57.36
2023-03-11T04:23:47.725Z,57.57
2023-03-11T04:26:26.698Z,57.35
2023-03-11T04:28:59.677Z,57.52
2023-03-11T04:31:35.485Z,57.42
2023-03-11T04:34:14.365Z,57.44
2023-03-11T04:36:52.302Z,57.51
2023-03-11T04:39:26.458Z,57.45
2023-03-11T04:41:59.289Z,57.28
2023-03-11T04:44:36.652Z,57.47
2023-03-11T04:47:11.162Z,57.39
2023-03-11T04:49:45.987Z,57.40
2023-03-11T04:52:19.100Z,57.55
2023-03-11T04:54:52.961Z,57.45
2023-03-11T04:57:27.358Z,57.57
2023-03-11T05:00:01.954Z,57.54
2023-03-11T05:02:36.111Z,57.51
2023-03-11T05:05:13.668Z,57.44
2023-03-11T05:07:47.598Z,57.35
2023-03-11T05:10:22.657Z,57.40
2023-03-11T05:13:07.438Z,57.32
2023-03-11T05:15:44.468Z,57.42
2023-03-11T05:18:17.409Z,57.24
2023-03-11T05:20:54.882Z,57.47
2023-03-11T05:23:33.822Z,57.45
2023-03-11T05:26:10.141Z,57.33
2023-03-11T05:28:44.385Z,57.36
2023-03-11T05:31:17.906Z,57.39
2023-03-11T05:33:54.737Z,57.23
2023-03-11T05:36:31.003Z,57.29
2023-03-11T05:39:04.229Z,57.27
2023-03-11T05:41:41.045Z,57.26
2023-03-11T05:44:14.054Z,57.26
2023-03-11T05:46:50.602Z,57.33
2023-03-11T05:49:24.040Z,57.30
2023-03-11T05:52:00.307Z,57.24
2023-03-11T05:54:34.911Z,57.23
2023-03-11T05:57:08.329Z,57.11
2023-03-11T05:59:43.944Z,57.28
2023-03-11T06:02:16.906Z,57.17
2023-03-11T06:04:52.660Z,57.33
2023-03-11T06:07:27.057Z,57.25
2023-03-11T06:09:59.994Z,57.21
2023-03-11T06:12:35.285Z,57.16
2023-03-11T06:15:17.806Z,57.43
2023-03-11T06:17:53.001Z,57.21
2023-03-11T06:20:26.169Z,57.29
2023-03-11T06:23:00.641Z,57.22
2023-03-11T06:25:35.501Z,57.36
2023-03-11T06:28:09.854Z,57.24
2023-03-11T06:30:44.258Z,57.26
2023-03-11T06:33:20.274Z,57.36
2023-03-11T06:35:59.803Z,57.31
2023-03-11T06:38:37.289Z,57.39
2023-03-11T06:41:10.544Z,57.33
2023-03-11T06:43:43.739Z,57.45
2023-03-11T06:46:17.744Z,57.47
2023-03-11T06:48:52.345Z,57.45
2023-03-11T06:51:26.651Z,57.44
2023-03-11T06:54:00.871Z,57.44
2023-03-11T06:56:34.210Z,57.59
2023-03-11T06:59:11.455Z,57.57
2023-03-11T07:01:44.701Z,57.72
2023-03-11T07:04:17.520Z,57.87
2023-03-11T07:06:50.329Z,57.85
2023-03-11T07:09:29.488Z,57.85
2023-03-11T07:12:02.612Z,58.00
2023-03-11T07:14:40.304Z,58.00
2023-03-11T07:17:13.070Z,58.04
2023-03-11T07:19:52.548Z,58.07
2023-03-11T07:22:25.269Z,58.27
2023-03-11T07:24:59.493Z,58.15
2023-03-11T07:27:32.270Z,58.35
2023-03-11T07:30:05.364Z,58.23
2023-03-11T07:32:38.223Z,58.32
2023-03-11T07:35:11.035Z,58.25
2023-03-11T07:37:43.816Z,58.24
2023-03-11T07:40:18.671Z,58.23
2023-03-11T07:42:51.483Z,58.15
2023-03-11T07:45:26.124Z,58.19
2023-03-11T07:47:58.956Z,58.27
2023-03-11T07:50:31.734Z,58.35
2023-03-11T07:53:04.454Z,58.36
2023-03-11T07:55:38.749Z,58.41
2023-03-11T07:58:11.473Z,58.51
2023-03-11T08:00:44.201Z,58.49
2023-03-11T08:03:16.968Z,58.44
2023-03-11T08:05:49.728Z,58.50
2023-03-11T08:08:22.557Z,58.46
2023-03-11T08:10:56.752Z,58.52
2023-03-11T08:13:29.553Z,58.49
2023-03-11T08:16:04.291Z,58.56
2023-03-11T08:18:37.185Z,58.61
2023-03-11T08:21:10.764Z,58.73
2023-03-11T08:23:44.087Z,58.63
2023-03-11T08:26:19.321Z,58.58
2023-03-11T08:28:52.209Z,58.70
2023-03-11T08:31:25.978Z,58.81
2023-03-11T08:34:00.904Z,58.78
2023-03-11T08:36:34.034Z,58.77
2023-03-11T08:39:07.037Z,58.78
2023-03-11T08:41:41.187Z,58.78
2023-03-11T08:44:14.063Z,58.96
2023-03-11T08:46:47.731Z,59.14
2023-03-11T08:49:23.214Z,59.30
2023-03-11T08:51:56.044Z,59.40
2023-03-11T08:54:28.959Z,59.33
2023-03-11T08:57:04.738Z,59.43
2023-03-11T08:59:37.601Z,59.45
2023-03-11T09:02:11.121Z,59.46
2023-03-11T09:04:43.887Z,59.43
2023-03-11T09:07:16.794Z,59.43
2023-03-11T09:09:49.823Z,59.53
2023-03-11T09:12:24.150Z,59.55
2023-03-11T09:14:57.431Z,59.70
2023-03-11T09:17:30.433Z,59.79
2023-03-11T09:20:03.610Z,59.73
2023-03-11T09:22:36.445Z,59.65
2023-03-11T09:25:10.733Z,59.56
2023-03-11T09:27:44.982Z,59.55
2023-03-11T09:30:18.077Z,59.36
2023-03-11T09:32:50.939Z,59.35
2023-03-11T09:35:23.863Z,59.37
2023-03-11T09:38:02.609Z,59.34
2023-03-11T09:40:40.887Z,59.35
2023-03-11T09:43:18.207Z,59.43
2023-03-11T09:45:54.488Z,59.57
2023-03-11T09:48:32.972Z,59.53
2023-03-11T09:51:11.357Z,59.58
2023-03-11T09:53:45.125Z,59.55
2023-03-11T09:56:22.812Z,59.72
2023-03-11T09:58:58.037Z,59.70
2023-03-11T10:01:34.301Z,59.89
2023-03-11T10:04:09.895Z,59.91
2023-03-11T10:06:43.072Z,60.03
2023-03-11T10:09:24.598Z,60.18
2023-03-11T10:12:09.916Z,60.30
2023-03-11T10:15:03.328Z,60.30
2023-03-11T10:17:40.989Z,60.42
2023-03-11T10:20:20.209Z,60.37
2023-03-11T10:22:57.150Z,60.42
2023-03-11T10:25:42.962Z,60.48
2023-03-11T10:28:17.844Z,60.47
2023-03-11T10:31:00.836Z,60.58
2023-03-11T10:33:37.702Z,60.49
2023-03-11T10:36:16.647Z,60.53
2023-03-11T10:38:53.010Z,60.49
2023-03-11T10:41:47.590Z,60.55
2023-03-11T10:44:25.101Z,60.45
2023-03-11T10:47:01.358Z,60.28
2023-03-11T10:49:37.386Z,60.26
2023-03-11T10:52:10.316Z,60.35
2023-03-11T10:54:46.389Z,60.29
2023-03-11T10:57:24.186Z,60.29
2023-03-11T11:00:09.823Z,60.29
2023-03-11T11:02:51.744Z,60.31
2023-03-11T11:05:32.582Z,60.27
2023-03-11T11:08:07.221Z,60.35
2023-03-11T11:10:49.871Z,60.32
2023-03-11T11:13:27.243Z,60.40
2023-03-11T11:16:01.844Z,60.35
2023-03-11T11:18:43.228Z,60.33
2023-03-11T11:21:18.532Z,60.36
2023-03-11T11:24:04.893Z,60.41
2023-03-11T11:26:40.351Z,60.21
2023-03-11T11:29:17.188Z,60.49
2023-03-11T11:31:59.006Z,60.34
2023-03-11T11:34:34.677Z,60.39
2023-03-11T11:37:08.048Z,60.41
2023-03-11T11:39:51.639Z,60.38
2023-03-11T11:42:27.520Z,60.35
2023-03-11T11:45:07.278Z,60.30
2023-03-11T11:47:44.650Z,60.33
2023-03-11T11:50:27.544Z,60.30
2023-03-11T11:53:12.578Z,60.31
2023-03-11T11:55:51.652Z,60.40
2023-03-11T11:58:25.418Z,60.47
2023-03-11T12:01:08.053Z,60.47
2023-03-11T12:04:02.129Z,60.54
2023-03-11T12:06:42.148Z,60.67
2023-03-11T12:09:27.235Z,60.59
2023-03-11T12:12:15.943Z,60.54
2023-03-11T12:14:51.482Z,60.71
2023-03-11T12:17:32.773Z,60.76
2023-03-11T12:20:12.501Z,60.61
2023-03-11T12:23:00.764Z,60.83
2023-03-11T12:25:40.710Z,60.86
2023-03-11T12:28:22.847Z,60.64
2023-03-11T12:31:10.216Z,60.68
2023-03-11T12:33:48.429Z,60.75
2023-03-11T12:36:36.321Z,60.73
2023-03-11T12:39:24.991Z,60.76
2023-03-11T12:42:46.915Z,60.59
2023-03-11T12:45:44.806Z,60.64
2023-03-11T12:48:35.814Z,60.61
2023-03-11T12:51:26.118Z,60.54
2023-03-11T12:54:00.152Z,60.46
2023-03-11T12:56:35.811Z,60.38
2023-03-11T12:59:20.515Z,60.49
2023-03-11T13:01:57.665Z,60.50
2023-03-11T13:06:25.726Z,61.37
2023-03-11T13:09:00.685Z,61.99
2023-03-11T13:11:43.911Z,62.15
2023-03-11T13:14:31.049Z,62.26
2023-03-11T13:17:34.171Z,62.03
2023-03-11T13:20:50.160Z,62.50
2023-03-11T13:23:31.321Z,62.44
2023-03-11T13:26:37.042Z,62.38
2023-03-11T13:29:45.065Z,62.44
2023-03-11T13:32:30.655Z,62.60
2023-03-11T13:35:19.348Z,62.87
2023-03-11T13:38:12.671Z,62.97
2023-03-11T13:40:47.888Z,62.74
2023-03-11T13:43:23.189Z,62.78
2023-03-11T13:46:01.454Z,62.96
2023-03-11T13:48:40.609Z,62.82
2023-03-11T13:51:23.397Z,62.78
2023-03-11T13:54:00.845Z,62.83
2023-03-11T13:56:40.834Z,62.54
2023-03-11T13:59:17.972Z,62.60
2023-03-11T14:01:57.439Z,62.49
2023-03-11T14:04:32.460Z,62.24
2023-03-11T14:07:15.088Z,61.97
2023-03-11T14:09:48.161Z,61.97
2023-03-11T14:12:22.527Z,61.93
2023-03-11T14:15:00.030Z,61.74
2023-03-11T14:17:33.211Z,61.64
2023-03-11T14:20:09.519Z,61.71
2023-03-11T14:22:46.199Z,61.70
2023-03-11T14:25:24.663Z,61.78
2023-03-11T14:28:02.332Z,61.33
2023-03-11T14:30:36.082Z,61.22
2023-03-11T14:33:26.804Z,61.25
2023-03-11T14:36:02.804Z,61.22
2023-03-11T14:38:35.919Z,61.15
2023-03-11T14:44:13.145Z,60.96
2023-03-11T14:46:50.474Z,60.91
2023-03-11T14:49:24.878Z,60.81
2023-03-11T14:52:02.846Z,60.50
2023-03-11T14:54:37.655Z,60.56
2023-03-11T14:57:20.505Z,60.52
2023-03-11T14:59:57.691Z,60.55
2023-03-11T15:02:42.159Z,60.17
2023-03-11T15:05:22.832Z,60.29
2023-03-11T15:08:01.295Z,60.30
2023-03-11T15:10:36.889Z,60.31
2023-03-11T15:13:15.936Z,60.45
2023-03-11T15:15:58.646Z,60.52
2023-03-11T15:18:34.063Z,60.44
2023-03-11T15:21:14.569Z,60.61
2023-03-11T15:23:49.094Z,60.83
2023-03-11T15:26:26.600Z,61.18
2023-03-11T15:29:05.949Z,61.31
2023-03-11T15:31:44.929Z,61.39
2023-03-11T15:34:30.982Z,61.67
2023-03-11T15:37:19.497Z,61.80
2023-03-11T15:39:53.332Z,61.64
2023-03-11T15:42:27.335Z,61.80
2023-03-11T15:45:15.214Z,61.45
2023-03-11T15:47:50.843Z,62.11
2023-03-11T15:50:40.203Z,62.33
2023-03-11T15:53:25.210Z,62.61
2023-03-11T15:56:07.456Z,62.79
2023-03-11T15:58:44.316Z,62.88
2023-03-11T16:01:18.401Z,62.81
2023-03-11T16:03:53.049Z,62.77
2023-03-11T16:06:26.135Z,62.84
2023-03-11T16:09:00.859Z,62.90
2023-03-11T16:11:34.067Z,62.73
2023-03-11T16:14:07.409Z,62.50
2023-03-11T16:16:40.543Z,62.34
2023-03-11T16:19:15.112Z,62.13
2023-03-11T16:21:50.588Z,61.86
2023-03-11T16:24:25.518Z,62.03
2023-03-11T16:26:58.618Z,61.87
2023-03-11T16:29:31.752Z,61.76
2023-03-11T16:32:07.340Z,61.77
2023-03-11T16:34:41.904Z,61.68
2023-03-11T16:37:20.713Z,61.71
2023-03-11T16:39:54.024Z,61.51
2023-03-11T16:42:27.168Z,61.68
2023-03-11T16:45:02.172Z,61.71
2023-03-11T16:47:36.597Z,61.40
2023-03-11T16:50:13.913Z,61.45
2023-03-11T16:52:47.011Z,61.35
2023-03-11T16:55:23.226Z,61.24
2023-03-11T16:57:57.542Z,61.34
2023-03-11T17:00:30.793Z,61.35
2023-03-11T17:03:04.308Z,61.07
2023-03-11T17:05:38.799Z,60.97
2023-03-11T17:08:12.971Z,60.87
2023-03-11T17:10:46.812Z,60.63
2023-03-11T17:13:19.867Z,60.64
2023-03-11T17:15:59.886Z,60.52
2023-03-11T17:18:32.926Z,60.57
2023-03-11T17:21:14.732Z,60.47
2023-03-11T17:23:47.972Z,60.37
2023-03-11T17:26:21.171Z,60.33
2023-03-11T17:28:54.424Z,60.19
2023-03-11T17:31:27.472Z,60.16
2023-03-11T17:34:00.860Z,60.15
2023-03-11T17:36:35.221Z,59.97
2023-03-11T17:39:08.386Z,59.76
2023-03-11T17:41:41.930Z,59.81
2023-03-11T17:44:14.997Z,59.84
2023-03-11T17:46:48.209Z,59.92
2023-03-11T17:49:23.681Z,59.59
2023-03-11T17:51:59.033Z,59.67
2023-03-11T17:54:32.149Z,59.74
2023-03-11T17:57:05.445Z,59.68
2023-03-11T17:59:38.527Z,59.70
2023-03-11T18:02:15.069Z,59.62
2023-03-11T18:04:53.898Z,59.55
2023-03-11T18:07:28.338Z,59.62
2023-03-11T18:10:01.311Z,59.66
2023-03-11T18:12:34.334Z,59.53
2023-03-11T18:15:14.336Z,59.44
2023-03-11T18:17:48.304Z,59.70
2023-03-11T18:20:21.524Z,59.50
2023-03-11T18:22:56.385Z,59.61
2023-03-11T18:25:29.461Z,59.64
2023-03-11T18:28:03.871Z,59.98
2023-03-11T18:30:38.054Z,59.92
2023-03-11T18:33:11.071Z,60.04
2023-03-11T18:35:44.098Z,60.28
2023-03-11T18:38:18.596Z,60.27
2023-03-11T18:40:57.781Z,60.33
2023-03-11T18:43:31.184Z,60.46
2023-03-11T18:46:09.258Z,60.62
2023-03-11T18:48:43.198Z,60.82
2023-03-11T18:51:16.400Z,60.88
2023-03-11T18:53:50.799Z,60.88
2023-03-11T18:56:23.866Z,61.04
2023-03-11T18:58:56.883Z,61.24
2023-03-11T19:01:29.990Z,61.15
2023-03-11T19:04:03.100Z,61.26
2023-03-11T19:06:36.170Z,61.29
2023-03-11T19:09:11.401Z,61.40
2023-03-11T19:11:44.386Z,61.57
2023-03-11T19:14:17.390Z,61.46
2023-03-11T19:16:50.679Z,61.55
2023-03-11T19:19:23.796Z,61.32
2023-03-11T19:21:56.808Z,61.45
2023-03-11T19:24:31.244Z,61.53
2023-03-11T19:27:04.376Z,61.39
2023-03-11T19:29:37.354Z,61.17
2023-03-11T19:32:10.351Z,61.05
2023-03-11T19:34:43.350Z,61.11
2023-03-11T19:37:17.206Z,60.90
2023-03-11T19:39:51.879Z,60.91
2023-03-11T19:42:25.963Z,60.88
2023-03-11T19:44:58.895Z,60.66
2023-03-11T19:47:32.795Z,60.55
2023-03-11T19:50:06.498Z,60.71
2023-03-11T19:52:39.479Z,60.60
2023-03-11T19:55:13.888Z,60.64
2023-03-11T19:57:46.927Z,60.57
2023-03-11T20:00:20.899Z,60.75
2023-03-11T20:02:56.535Z,60.58
2023-03-11T20:05:29.721Z,60.61
2023-03-11T20:08:02.750Z,60.38
2023-03-11T20:10:40.568Z,60.64
2023-03-11T20:13:14.174Z,60.67
2023-03-11T20:15:47.517Z,60.93
2023-03-11T20:18:20.617Z,60.84
2023-03-11T20:20:53.738Z,60.98
2023-03-11T20:23:26.912Z,60.86
2023-03-11T20:26:01.519Z,60.89
2023-03-11T20:28:35.021Z,61.04
2023-03-11T20:31:10.416Z,61.19
2023-03-11T20:33:43.574Z,61.17
2023-03-11T20:36:18.882Z,61.41
2023-03-11T20:38:53.486Z,61.41
2023-03-11T20:41:29.005Z,61.51
2023-03-11T20:44:02.056Z,61.33
2023-03-11T20:46:35.543Z,61.30
2023-03-11T20:49:08.623Z,61.48
2023-03-11T20:51:48.096Z,61.50
2023-03-11T20:54:21.354Z,61.49
2023-03-11T20:56:55.781Z,61.49
2023-03-11T20:59:28.953Z,61.64
2023-03-11T21:02:02.554Z,61.56
2023-03-11T21:04:35.687Z,61.46
2023-03-11T21:07:10.336Z,61.70
2023-03-11T21:09:43.554Z,61.80
2023-03-11T21:12:18.333Z,61.74
2023-03-11T21:14:51.622Z,61.89
2023-03-11T21:17:24.824Z,61.94
2023-03-11T21:19:58.344Z,61.76
2023-03-11T21:22:31.421Z,61.97
2023-03-11T21:25:07.918Z,61.97
2023-03-11T21:27:43.115Z,61.89
2023-03-11T21:30:16.490Z,62.08
2023-03-11T21:32:49.755Z,61.99
2023-03-11T21:35:23.256Z,61.91
2023-03-11T21:37:56.338Z,61.86
2023-03-11T21:40:31.008Z,61.91
2023-03-11T21:43:05.628Z,61.96
2023-03-11T21:45:38.738Z,61.88
2023-03-11T21:48:13.595Z,62.05
2023-03-11T21:50:48.472Z,62.21
2023-03-11T21:53:21.648Z,62.18
2023-03-11T21:55:55.089Z,62.57
2023-03-11T21:58:29.537Z,62.41
2023-03-11T22:01:03.569Z,62.50
2023-03-11T22:03:38.295Z,62.25
2023-03-11T22:06:13.481Z,62.59
2023-03-11T22:08:46.551Z,62.77
2023-03-11T22:11:20.599Z,62.82
2023-03-11T22:13:56.109Z,62.53
2023-03-11T22:16:29.090Z,62.78
2023-03-11T22:19:04.302Z,62.98
2023-03-11T22:21:37.287Z,63.08
2023-03-11T22:24:10.430Z,63.22
2023-03-11T22:26:43.443Z,63.45
2023-03-11T22:29:18.084Z,63.46
2023-03-11T22:31:51.198Z,63.53
2023-03-11T22:34:24.330Z,63.46
2023-03-11T22:36:59.885Z,63.46
2023-03-11T22:39:32.839Z,63.77
2023-03-11T22:42:06.158Z,63.82
2023-03-11T22:44:40.485Z,63.75
2023-03-11T22:47:13.506Z,63.83
2023-03-11T22:49:46.650Z,63.95
2023-03-11T22:52:19.625Z,64.08
2023-03-11T22:54:52.743Z,64.11
2023-03-11T22:57:25.810Z,64.26
2023-03-11T23:00:00.184Z,64.23
2023-03-11T23:02:33.182Z,64.27
2023-03-11T23:05:06.983Z,64.46
2023-03-11T23:07:40.099Z,64.42
2023-03-11T23:10:15.248Z,64.41
2023-03-11T23:12:48.505Z,64.64
2023-03-11T23:15:22.904Z,64.81
2023-03-11T23:17:55.899Z,64.93
2023-03-11T23:20:29.032Z,64.96
2023-03-11T23:23:02.031Z,64.98
2023-03-11T23:25:35.625Z,65.14
2023-03-11T23:28:09.119Z,64.87
2023-03-11T23:30:43.501Z,65.13
2023-03-11T23:33:16.470Z,65.11
2023-03-11T23:35:49.502Z,65.08
2023-03-11T23:38:22.533Z,64.94
2023-03-11T23:40:56.085Z,65.09
2023-03-11T23:43:29.239Z,65.14
2023-03-11T23:46:03.691Z,65.23
2023-03-11T23:48:36.762Z,65.24
2023-03-11T23:51:10.268Z,65.19
2023-03-11T23:53:43.223Z,65.27
2023-03-11T23:56:18.103Z,65.32
2023-03-11T23:58:51.095Z,65.36
